aviador You're here:

KGCC Decoded Metar

GILLETTE in WY, USA
Report Time2018-04-26 12:53:00
UTC Time2018-04-26 13:09:13
Flight Rules vfr VFR
Wind290° at 11 kt
W.Decomp.*RWY 34: 5.2 kt HW 9.7 kt LCW
RWY 21: 4.1 kt HW 10.2 kt RCW
W.Rank290° ranks 21
Current wind is above 290° avg. (9.4)
Visibility9999 m
Phenomena:N/A
Clouds:Broken 060 Hf
Overcast 075 Hf
Expected CloudBase > 1,200 ft AGL from Temp-Dew spread
Ceiling6,000 ft
Temp05°C (ISA -1)
Dew Point02°C (81% RH)
AAT-0.6°C
QNH1025 hPa
Density Alt3,868 ft
Elevation4,331 ft
Report Wrong Elevation
Raw Report
KGCC 261253Z AUTO 29011KT 10SM BKN060 OVC075 05/02 A3026 RMK AO2
SLP233 T00500017 $=

Extra information for KGCC:More info

Metar Taf Metar & Taf Last 4 Metars F.Rules Stats Wind Profile Meteogram Temp Stats Airport Information Weather charts Add Link Nearby VenuesMetar ALERT Operation Metar Decoded Social comments

AIRNAV info for KGCC